Time;durP1;ratioP1;P1;durP2;ratioP2;P2;SDS_P1;SDS_P2;PMS_P1;PMS_P2;Temp;Humidity;BMP_temperature;BMP_pressure;BME280_temperature;BME280_humidity;BME280_pressure;Samples;Min_cycle;Max_cycle;Signal;HPM_P1;HPM_P2
2021/11/28 00:02:21;;;;;;;1.58;1.48;;;-8.10;99.90;;;;;;5115824;28;20047;-63
2021/11/28 00:04:48;;;;;;;1.23;1.13;;;-8.00;99.90;;;;;;5115594;28;20062;-64
2021/11/28 00:14:42;;;;;;;2.15;1.60;;;-8.00;99.90;;;;;;5115613;27;20019;-63
2021/11/28 00:17:08;;;;;;;1.63;1.52;;;-7.90;99.90;;;;;;5115130;28;20023;-63
2021/11/28 00:19:34;;;;;;;1.13;1.02;;;-7.90;99.90;;;;;;5115091;28;20497;-63
2021/11/28 00:22:00;;;;;;;1.50;1.40;;;-7.90;99.90;;;;;;5114901;28;20118;-63
2021/11/28 00:24:26;;;;;;;1.60;1.50;;;-7.90;99.90;;;;;;5115040;28;20055;-63
2021/11/28 00:26:52;;;;;;;1.60;1.50;;;-7.90;99.90;;;;;;5115031;28;20032;-63
2021/11/28 00:29:18;;;;;;;2.15;1.25;;;-7.90;99.90;;;;;;5115085;28;20027;-63
2021/11/28 00:31:44;;;;;;;1.58;1.40;;;-7.90;99.90;;;;;;5115369;28;20024;-63
2021/11/28 00:34:09;;;;;;;1.40;1.30;;;-7.90;99.90;;;;;;5115181;27;20107;-63
2021/11/28 00:36:35;;;;;;;1.50;1.40;;;-7.90;99.90;;;;;;5115309;28;20020;-63
2021/11/28 00:39:01;;;;;;;1.60;1.50;;;-7.80;99.90;;;;;;5115014;28;20031;-63
2021/11/28 00:41:27;;;;;;;1.50;1.40;;;-7.90;99.90;;;;;;5115145;28;20035;-63
2021/11/28 00:43:53;;;;;;;1.48;1.38;;;-7.80;99.90;;;;;;5114573;28;20348;-63
2021/11/28 00:46:18;;;;;;;2.15;1.55;;;-7.80;99.90;;;;;;5114699;28;20051;-63
2021/11/28 00:48:45;;;;;;;1.35;1.20;;;-7.80;99.90;;;;;;5114702;28;20031;-63
2021/11/28 00:53:40;;;;;;;2.33;1.57;;;-7.80;99.90;;;;;;5114106;28;20399;-63
2021/11/28 00:56:06;;;;;;;1.45;1.35;;;-7.80;99.90;;;;;;5114315;28;20020;-63
2021/11/28 00:58:32;;;;;;;1.38;1.27;;;-7.80;99.90;;;;;;5114346;28;20051;-63
2021/11/28 01:00:59;;;;;;;1.52;1.30;;;-7.80;99.90;;;;;;5114152;28;20043;-63
2021/11/28 01:03:24;;;;;;;1.20;1.20;;;-7.80;99.90;;;;;;5114546;28;20030;-63
2021/11/28 01:05:50;;;;;;;1.48;1.38;;;-7.80;99.90;;;;;;5114502;28;20024;-63
2021/11/28 01:08:16;;;;;;;3.28;1.52;;;-7.70;99.90;;;;;;5112910;28;20033;-64
2021/11/28 01:10:45;;;;;;;1.48;1.38;;;-7.80;99.90;;;;;;5114570;28;20030;-63
2021/11/28 01:13:11;;;;;;;1.48;1.33;;;-7.90;99.90;;;;;;5114261;28;20023;-63
2021/11/28 01:15:37;;;;;;;1.35;1.27;;;-7.90;99.90;;;;;;5114175;28;20020;-63
2021/11/28 01:18:03;;;;;;;1.55;1.45;;;-7.90;99.90;;;;;;5114258;28;20486;-63
2021/11/28 01:20:28;;;;;;;1.23;1.10;;;-8.00;99.90;;;;;;5114031;28;20039;-63
2021/11/28 01:22:54;;;;;;;1.35;1.23;;;-8.00;99.90;;;;;;5113825;28;20032;-63
2021/11/28 01:25:20;;;;;;;1.40;1.30;;;-8.10;99.90;;;;;;5114192;28;20020;-63
2021/11/28 01:27:46;;;;;;;2.88;1.40;;;-8.10;99.90;;;;;;5114156;28;20504;-63
2021/11/28 01:30:13;;;;;;;2.25;1.77;;;-8.10;99.90;;;;;;5113651;28;20019;-63
2021/11/28 01:32:40;;;;;;;1.50;1.40;;;-8.00;99.90;;;;;;5113894;28;20110;-63
2021/11/28 01:35:10;;;;;;;2.13;1.23;;;-7.90;99.90;;;;;;5113563;28;20501;-63
2021/11/28 01:37:36;;;;;;;;;;;-7.80;99.90;;;;;;5114151;28;20467;-63
2021/11/28 01:40:11;;;;;;;1.60;1.50;;;-7.80;99.90;;;;;;5113742;28;19995;-63
2021/11/28 01:42:43;;;;;;;1.50;1.40;;;-7.80;99.90;;;;;;5113824;27;20045;-64
2021/11/28 01:45:16;;;;;;;1.60;1.45;;;-7.80;99.90;;;;;;5113354;28;20024;-64
2021/11/28 01:47:42;;;;;;;2.75;1.40;;;-7.80;99.90;;;;;;5113680;28;20024;-63
2021/11/28 01:50:08;;;;;;;1.55;1.40;;;-7.70;99.90;;;;;;5113631;28;20461;-63
2021/11/28 01:52:36;;;;;;;1.60;1.50;;;-7.80;99.90;;;;;;5113543;28;20019;-63
2021/11/28 01:55:05;;;;;;;1.60;1.50;;;-7.80;99.90;;;;;;5113272;28;20495;-64
2021/11/28 01:57:32;;;;;;;1.40;1.30;;;-7.80;99.90;;;;;;5113453;28;20062;-63
2021/11/28 01:59:58;;;;;;;1.33;1.23;;;-7.80;99.90;;;;;;5113547;28;20135;-63
2021/11/28 02:02:24;;;;;;;1.40;1.30;;;-7.80;99.90;;;;;;5113517;28;20027;-63
2021/11/28 02:04:53;;;;;;;1.60;1.33;;;-7.80;99.90;;;;;;5112692;28;20475;-63
2021/11/28 02:07:19;;;;;;;1.60;1.50;;;-7.80;99.90;;;;;;5113167;28;20023;-63
2021/11/28 02:09:44;;;;;;;3.00;1.70;;;-7.80;99.90;;;;;;5113025;28;20375;-63
2021/11/28 02:12:10;;;;;;;2.33;1.65;;;-7.70;99.90;;;;;;5112935;28;20030;-63
2021/11/28 02:14:36;;;;;;;2.30;1.48;;;-7.70;99.90;;;;;;5112972;28;20031;-63
2021/11/28 02:17:03;;;;;;;2.15;1.42;;;-7.70;99.90;;;;;;5112939;28;20597;-63
2021/11/28 02:19:29;;;;;;;2.40;1.58;;;-7.70;99.90;;;;;;5113133;28;20103;-64
2021/11/28 02:21:54;;;;;;;2.03;1.70;;;-7.70;99.90;;;;;;5112930;28;20118;-63
2021/11/28 02:55:55;;;;;;;2.03;1.70;;;-7.90;99.90;;;;;;5112239;28;20028;-64
2021/11/28 02:58:23;;;;;;;2.45;1.70;;;-7.90;99.90;;;;;;5112204;28;20051;-64
2021/11/28 03:01:16;;;;;;;2.67;1.77;;;-8.00;99.90;;;;;;5112496;28;20453;-64
2021/11/28 03:03:42;;;;;;;3.13;1.63;;;-7.90;99.90;;;;;;5107790;28;20039;-64
2021/11/28 03:06:08;;;;;;;3.75;1.55;;;-7.90;99.90;;;;;;5112192;28;20062;-64
2021/11/28 03:08:34;;;;;;;2.65;1.60;;;-7.90;99.90;;;;;;5112640;28;20020;-64
2021/11/28 03:11:00;;;;;;;1.83;1.58;;;-7.90;99.90;;;;;;5112442;28;20103;-64
2021/11/28 03:13:39;;;;;;;1.67;1.58;;;-7.90;99.90;;;;;;5112239;28;20051;-63
2021/11/28 03:16:11;;;;;;;1.70;1.60;;;-7.90;99.90;;;;;;5113155;28;20523;-64
2021/11/28 03:18:37;;;;;;;1.63;1.52;;;-7.90;99.90;;;;;;5116369;28;20019;-64
2021/11/28 03:21:13;;;;;;;2.58;1.83;;;-7.90;99.90;;;;;;5116758;28;20027;-64
2021/11/28 03:23:41;;;;;;;2.45;1.90;;;-7.90;99.90;;;;;;5116493;28;20102;-64
2021/11/28 03:26:08;;;;;;;2.05;1.85;;;-7.80;99.90;;;;;;5116272;28;20055;-64
2021/11/28 03:28:36;;;;;;;3.13;1.67;;;-7.90;99.90;;;;;;5116537;27;20029;-64
2021/11/28 03:31:02;;;;;;;1.60;1.50;;;-7.90;99.90;;;;;;5116170;28;20031;-64
2021/11/28 03:33:28;;;;;;;2.42;1.63;;;-7.80;99.90;;;;;;5116372;28;20027;-64
2021/11/28 03:35:54;;;;;;;1.85;1.70;;;-7.80;99.90;;;;;;5116286;28;20020;-64
2021/11/28 03:38:19;;;;;;;4.10;1.90;;;-7.80;99.90;;;;;;5115948;27;20383;-64
2021/11/28 03:40:45;;;;;;;4.32;1.98;;;-7.80;99.90;;;;;;5115883;28;20020;-64
2021/11/28 03:43:11;;;;;;;3.55;2.20;;;-7.80;99.90;;;;;;5116112;27;20027;-64
2021/11/28 03:45:37;;;;;;;2.28;1.60;;;-7.80;99.90;;;;;;5115921;28;20460;-64
2021/11/28 03:48:03;;;;;;;4.13;1.95;;;-7.80;99.90;;;;;;5115768;28;20024;-63
2021/11/28 03:50:28;;;;;;;3.08;2.00;;;-7.80;99.90;;;;;;5115562;28;20050;-63
2021/11/28 03:52:54;;;;;;;1.58;1.45;;;-7.80;99.90;;;;;;5116034;28;20051;-63
2021/11/28 03:55:22;;;;;;;1.75;1.65;;;-7.80;99.90;;;;;;5115527;28;20486;-64
2021/11/28 03:57:48;;;;;;;2.03;1.77;;;-7.80;99.90;;;;;;5115422;28;20499;-65
2021/11/28 04:00:14;;;;;;;5.03;2.28;;;-7.80;99.90;;;;;;5115463;28;20031;-65
2021/11/28 04:02:40;;;;;;;2.72;1.80;;;-7.80;99.90;;;;;;5115845;28;20035;-65
2021/11/28 04:05:07;;;;;;;2.42;1.88;;;-7.80;99.90;;;;;;5115412;28;20073;-65
2021/11/28 04:07:33;;;;;;;2.05;1.63;;;-7.80;99.90;;;;;;5115411;28;20032;-64
2021/11/28 04:10:00;;;;;;;1.92;1.83;;;-7.80;99.90;;;;;;5115279;28;20012;-65
2021/11/28 04:12:25;;;;;;;2.70;1.40;;;-7.90;99.90;;;;;;5115552;27;20459;-65
2021/11/28 04:14:56;;;;;;;2.60;1.77;;;-8.00;99.90;;;;;;5115582;28;20049;-65
2021/11/28 04:17:22;;;;;;;3.05;1.75;;;-8.00;99.90;;;;;;5115153;28;20030;-65
2021/11/28 04:19:48;;;;;;;3.03;1.80;;;-8.00;99.90;;;;;;5115509;27;20028;-65
2021/11/28 04:22:14;;;;;;;2.70;1.88;;;-7.90;99.90;;;;;;5113651;28;20517;-63
2021/11/28 04:24:40;;;;;;;4.32;1.80;;;-7.90;99.90;;;;;;5115407;28;20027;-64
2021/11/28 04:27:05;;;;;;;2.50;1.92;;;-7.80;99.90;;;;;;5114853;28;20047;-65
2021/11/28 04:29:31;;;;;;;1.77;1.67;;;-7.80;99.90;;;;;;5114458;28;20031;-63
2021/11/28 04:31:57;;;;;;;2.58;1.45;;;-7.90;99.90;;;;;;5115088;28;20099;-64
2021/11/28 04:34:22;;;;;;;3.47;1.92;;;-8.00;99.90;;;;;;5115017;28;20531;-64
2021/11/28 04:36:49;;;;;;;3.90;1.85;;;-8.00;99.90;;;;;;5114997;28;20099;-64
2021/11/28 04:39:15;;;;;;;1.83;1.35;;;-7.90;99.90;;;;;;5114777;28;20016;-63
2021/11/28 04:41:41;;;;;;;2.70;1.85;;;-8.00;99.90;;;;;;5114739;28;20042;-64
2021/11/28 04:44:06;;;;;;;1.70;1.60;;;-8.10;99.90;;;;;;5114871;28;20031;-64
2021/11/28 04:46:32;;;;;;;4.53;1.83;;;-8.10;99.90;;;;;;5114621;27;20572;-63
2021/11/28 04:48:59;;;;;;;1.77;1.67;;;-8.10;99.90;;;;;;5114728;28;20028;-63
2021/11/28 04:51:25;;;;;;;2.10;1.75;;;-8.10;99.90;;;;;;5114588;28;20024;-63
2021/11/28 04:53:50;;;;;;;3.25;2.00;;;-8.10;99.90;;;;;;5114640;28;20073;-63
2021/11/28 04:56:16;;;;;;;2.83;1.90;;;-8.10;99.90;;;;;;5114828;28;20016;-62
2021/11/28 04:58:42;;;;;;;2.90;1.88;;;-8.10;99.90;;;;;;5114357;28;20048;-63
2021/11/28 05:01:08;;;;;;;2.15;1.83;;;-8.10;99.90;;;;;;5114305;28;20063;-63
2021/11/28 05:03:33;;;;;;;2.20;1.90;;;-8.10;99.90;;;;;;5114325;28;20032;-63
2021/11/28 05:05:59;;;;;;;1.77;1.50;;;-8.10;99.90;;;;;;5114626;28;20050;-63
2021/11/28 05:08:25;;;;;;;1.67;1.58;;;-8.20;99.90;;;;;;5114234;28;20027;-63
2021/11/28 05:10:50;;;;;;;2.63;1.90;;;-8.20;99.90;;;;;;5114199;28;20024;-63
2021/11/28 05:13:16;;;;;;;2.55;1.67;;;-8.20;99.90;;;;;;5114409;28;20041;-63
2021/11/28 05:15:42;;;;;;;2.00;1.80;;;-8.20;99.90;;;;;;5114451;28;20019;-63
2021/11/28 05:18:07;;;;;;;3.88;1.67;;;-8.20;99.90;;;;;;5114131;28;20023;-63
2021/11/28 05:20:33;;;;;;;2.97;1.90;;;-8.30;99.90;;;;;;5113840;28;20112;-62
2021/11/28 05:22:59;;;;;;;1.88;1.70;;;-8.30;99.90;;;;;;5114267;28;20036;-63
2021/11/28 05:25:25;;;;;;;3.75;1.80;;;-8.30;99.90;;;;;;5114092;28;20172;-63
2021/11/28 05:27:51;;;;;;;2.88;1.90;;;-8.30;99.90;;;;;;5113823;28;20478;-63
2021/11/28 05:30:17;;;;;;;2.08;1.70;;;-8.30;99.90;;;;;;5113648;28;20030;-64
2021/11/28 05:32:42;;;;;;;3.17;1.88;;;-8.30;99.90;;;;;;5113749;28;20073;-63
2021/11/28 05:35:08;;;;;;;2.13;1.85;;;-8.40;99.90;;;;;;5113741;28;20023;-64
2021/11/28 05:37:34;;;;;;;2.15;1.73;;;-8.40;99.90;;;;;;5113568;28;20027;-62
2021/11/28 05:40:01;;;;;;;3.55;1.98;;;-8.50;99.90;;;;;;5111270;28;20026;-62
2021/11/28 05:42:27;;;;;;;3.50;1.73;;;-7.60;99.90;;;;;;5092781;28;20043;-63
2021/11/28 05:44:53;;;;;;;2.47;1.88;;;-7.30;99.90;;;;;;5103350;28;20024;-62
2021/11/28 05:47:18;;;;;;;3.33;1.77;;;-7.50;99.90;;;;;;5105482;28;20024;-63
2021/11/28 05:49:44;;;;;;;2.10;1.85;;;-7.60;99.90;;;;;;5103085;28;20020;-62
2021/11/28 05:52:10;;;;;;;2.45;1.85;;;-7.80;99.90;;;;;;5101844;28;20107;-62
2021/11/28 05:54:36;;;;;;;2.10;1.90;;;-7.90;99.90;;;;;;5098574;28;20016;-63
2021/11/28 05:57:02;;;;;;;1.73;1.63;;;-7.90;99.90;;;;;;5100752;28;20019;-63
2021/11/28 05:59:28;;;;;;;2.80;2.00;;;-8.00;99.90;;;;;;5100945;28;20024;-63
2021/11/28 06:01:55;;;;;;;1.77;1.67;;;-8.10;99.90;;;;;;5101837;28;20380;-63
2021/11/28 06:04:21;;;;;;;2.08;1.75;;;-8.10;99.90;;;;;;5100293;27;20048;-63
2021/11/28 06:06:47;;;;;;;1.80;1.70;;;-8.10;99.90;;;;;;5103602;28;20100;-63
2021/11/28 06:09:12;;;;;;;4.70;2.10;;;-8.00;99.90;;;;;;5103368;28;20023;-63
2021/11/28 06:11:38;;;;;;;1.88;1.70;;;-8.10;99.90;;;;;;5102035;28;20499;-63
2021/11/28 06:14:04;;;;;;;1.70;1.55;;;-8.00;99.90;;;;;;5103465;28;20015;-62
2021/11/28 06:16:30;;;;;;;2.65;1.85;;;-8.00;99.90;;;;;;5107576;28;20054;-63
2021/11/28 06:18:56;;;;;;;2.17;1.50;;;-8.00;99.90;;;;;;5113363;28;20102;-62
2021/11/28 06:21:21;;;;;;;1.98;1.77;;;-7.90;99.90;;;;;;5112639;28;20116;-62
2021/11/28 06:23:47;;;;;;;1.70;1.60;;;-7.80;99.90;;;;;;5112932;28;20019;-62
2021/11/28 06:26:13;;;;;;;2.78;1.55;;;-7.90;99.90;;;;;;5112849;28;20028;-62
2021/11/28 06:28:39;;;;;;;2.65;1.80;;;-7.90;99.90;;;;;;5112642;28;20064;-62
2021/11/28 06:31:04;;;;;;;1.70;1.60;;;-7.70;99.90;;;;;;5106693;28;20023;-62
2021/11/28 06:33:30;;;;;;;2.05;1.55;;;-7.70;99.90;;;;;;5112920;27;20054;-62
2021/11/28 06:35:57;;;;;;;2.35;1.77;;;-7.80;99.90;;;;;;5112947;28;20531;-62
2021/11/28 06:38:23;;;;;;;1.88;1.70;;;-7.90;99.90;;;;;;5112481;28;20114;-62
2021/11/28 06:40:48;;;;;;;1.98;1.75;;;-8.00;99.90;;;;;;5112549;28;20047;-62
2021/11/28 06:43:15;;;;;;;2.38;1.60;;;-8.10;99.90;;;;;;5112870;28;20035;-62
2021/11/28 06:45:41;;;;;;;2.42;1.58;;;-8.10;99.90;;;;;;5112473;28;20023;-62
2021/11/28 06:48:06;;;;;;;2.00;1.80;;;-8.10;99.90;;;;;;5111352;28;20076;-62
2021/11/28 06:50:32;;;;;;;3.55;2.15;;;-8.00;99.90;;;;;;5111846;28;20039;-63
2021/11/28 06:52:58;;;;;;;1.85;1.67;;;-4.90;99.90;;;;;;5112596;28;20030;-63
2021/11/28 06:55:24;;;;;;;1.98;1.60;;;-5.30;99.90;;;;;;5112271;28;20580;-63
2021/11/28 06:57:49;;;;;;;1.70;1.60;;;-6.20;99.90;;;;;;5112184;28;20091;-63
2021/11/28 07:00:17;;;;;;;1.75;1.48;;;-6.70;99.90;;;;;;5112176;28;20059;-63
2021/11/28 07:02:43;;;;;;;2.83;1.83;;;-5.70;99.90;;;;;;5112433;28;20028;-63
2021/11/28 07:05:08;;;;;;;1.88;1.73;;;-4.90;99.90;;;;;;5112609;28;20524;-63
2021/11/28 07:07:34;;;;;;;2.58;1.90;;;-5.40;99.90;;;;;;5112276;28;20065;-63
2021/11/28 07:10:00;;;;;;;1.33;1.23;;;-6.10;99.90;;;;;;5112568;28;20028;-63
2021/11/28 07:12:26;;;;;;;2.55;2.08;;;-6.60;99.90;;;;;;5112197;28;20111;-63
2021/11/28 07:14:51;;;;;;;3.15;2.10;;;-7.10;99.90;;;;;;5112318;28;20031;-63
2021/11/28 07:17:17;;;;;;;1.95;1.73;;;-7.30;99.90;;;;;;5100957;28;20062;-63
2021/11/28 07:19:44;;;;;;;2.58;1.83;;;-7.40;99.90;;;;;;5103316;28;20061;-62
2021/11/28 07:22:09;;;;;;;6.30;2.03;;;-7.50;99.90;;;;;;5112166;28;20039;-62
2021/11/28 07:24:35;;;;;;;4.75;2.35;;;-4.10;99.90;;;;;;5112017;28;20068;-63
2021/11/28 07:27:01;;;;;;;5.25;2.97;;;-2.60;99.90;;;;;;5112506;28;20019;-63
2021/11/28 07:29:27;;;;;;;2.40;2.20;;;-3.50;99.90;;;;;;5112044;28;20054;-64
2021/11/28 07:31:53;;;;;;;3.25;1.98;;;-4.60;99.90;;;;;;5111731;28;20016;-63
2021/11/28 07:34:18;;;;;;;3.13;2.42;;;-5.30;99.90;;;;;;5112123;28;20567;-63
2021/11/28 07:36:44;;;;;;;7.82;2.90;;;-5.90;99.90;;;;;;5112127;28;20090;-62
2021/11/28 07:39:10;;;;;;;4.35;2.25;;;-6.30;99.90;;;;;;5104423;28;20024;-63
2021/11/28 07:41:37;;;;;;;2.80;2.13;;;-6.50;99.90;;;;;;5091797;28;20032;-62
2021/11/28 07:44:03;;;;;;;3.63;2.05;;;-6.70;99.90;;;;;;5100441;28;20095;-62
2021/11/28 07:46:29;;;;;;;5.13;2.30;;;-6.90;99.90;;;;;;5110678;28;20019;-62
2021/11/28 07:48:55;;;;;;;2.47;1.90;;;-7.10;99.90;;;;;;5102497;28;20043;-62
2021/11/28 07:51:21;;;;;;;6.32;2.45;;;-7.30;99.90;;;;;;5101040;28;20023;-62
2021/11/28 07:53:47;;;;;;;1.98;1.63;;;-7.40;99.90;;;;;;5101867;28;20023;-62
2021/11/28 07:56:13;;;;;;;4.63;1.92;;;-7.50;99.90;;;;;;5105488;28;20043;-64
2021/11/28 07:58:39;;;;;;;2.45;1.88;;;-7.60;99.90;;;;;;5111577;28;20122;-62
2021/11/28 08:01:05;;;;;;;1.90;1.77;;;-7.00;99.90;;;;;;5111649;28;20609;-63
2021/11/28 08:03:31;;;;;;;1.95;1.60;;;-7.30;99.90;;;;;;5113340;28;20117;-62
2021/11/28 08:05:58;;;;;;;1.70;1.60;;;-5.80;99.90;;;;;;5115799;28;20387;-62
2021/11/28 08:08:27;;;;;;;1.83;1.65;;;-5.90;99.90;;;;;;5115412;28;20038;-62
2021/11/28 08:10:54;;;;;;;1.60;1.50;;;-6.50;99.90;;;;;;5115367;28;20513;-62
2021/11/28 08:13:20;;;;;;;1.65;1.55;;;-7.00;99.90;;;;;;5115374;28;20027;-62
2021/11/28 08:15:46;;;;;;;1.85;1.50;;;-7.30;99.90;;;;;;5115249;28;20069;-62
2021/11/28 08:18:12;;;;;;;2.00;1.50;;;-7.50;99.90;;;;;;5115634;28;20028;-62
2021/11/28 08:20:37;;;;;;;1.58;1.48;;;-7.60;99.90;;;;;;5114995;28;20352;-61
2021/11/28 08:23:04;;;;;;;2.15;1.75;;;-7.70;99.90;;;;;;5115149;28;20032;-61
2021/11/28 08:25:31;;;;;;;4.05;2.00;;;-7.70;99.90;;;;;;5113857;27;20031;-61
2021/11/28 08:27:57;;;;;;;2.08;1.77;;;-7.70;99.90;;;;;;5113800;28;20028;-61
2021/11/28 08:30:24;;;;;;;5.90;2.15;;;-6.70;99.90;;;;;;5113955;28;20020;-61
2021/11/28 08:32:50;;;;;;;2.70;1.60;;;-5.00;99.90;;;;;;5115069;28;20069;-61
2021/11/28 08:35:17;;;;;;;2.38;1.77;;;-5.20;99.90;;;;;;5114888;28;20059;-61
2021/11/28 08:37:43;;;;;;;2.35;1.65;;;-6.00;99.90;;;;;;5115064;28;20099;-61
2021/11/28 08:40:12;;;;;;;3.40;1.75;;;-6.60;99.90;;;;;;5114871;28;20111;-61
2021/11/28 08:42:37;;;;;;;2.17;1.63;;;-6.90;99.90;;;;;;5114577;28;20035;-61
2021/11/28 08:45:08;;;;;;;4.68;3.30;;;-7.20;99.90;;;;;;5114944;28;20031;-61
2021/11/28 08:47:34;;;;;;;;;;;-7.30;99.90;;;;;;5115039;28;20020;-61
2021/11/28 08:50:00;;;;;;;5.82;3.80;;;-7.50;99.90;;;;;;5114665;28;19911;-61
2021/11/28 08:52:27;;;;;;;2.67;2.40;;;-7.60;99.90;;;;;;5114445;28;20032;-61
2021/11/28 08:54:52;;;;;;;4.40;1.60;;;-7.50;99.90;;;;;;5114541;27;20098;-63
2021/11/28 08:57:18;;;;;;;2.45;1.70;;;-6.50;99.90;;;;;;5114715;28;20130;-62
2021/11/28 08:59:44;;;;;;;4.70;2.10;;;-5.80;99.90;;;;;;5114629;28;20398;-62
2021/11/28 09:02:11;;;;;;;2.88;2.22;;;-6.20;99.90;;;;;;5114695;27;20092;-62
2021/11/28 09:04:39;;;;;;;2.45;1.75;;;-6.10;99.90;;;;;;5114534;28;20034;-62
2021/11/28 09:07:05;;;;;;;3.00;1.73;;;-6.50;99.90;;;;;;5099412;28;20077;-62
2021/11/28 09:09:31;;;;;;;3.88;1.90;;;-7.00;99.90;;;;;;5094133;28;20058;-61
2021/11/28 09:11:58;;;;;;;2.80;1.90;;;-7.30;99.90;;;;;;5094045;28;20044;-61
2021/11/28 09:14:24;;;;;;;2.35;1.73;;;-7.60;99.90;;;;;;5093271;28;20027;-62
2021/11/28 09:16:49;;;;;;;2.83;1.98;;;-7.80;99.90;;;;;;5093614;28;20099;-61
2021/11/28 09:21:47;;;;;;;4.47;2.28;;;-7.90;99.90;;;;;;5093551;28;20032;-61
2021/11/28 09:26:57;;;;;;;4.43;2.28;;;-8.10;99.90;;;;;;5093853;28;20046;-62
2021/11/28 09:29:23;;;;;;;3.95;2.88;;;-6.50;99.90;;;;;;5093812;28;20067;-62
2021/11/28 09:31:49;;;;;;;3.78;2.63;;;-6.10;99.90;;;;;;5093392;28;20480;-62
2021/11/28 09:34:14;;;;;;;5.80;2.97;;;-6.60;99.90;;;;;;5093799;28;20107;-62
2021/11/28 09:36:40;;;;;;;4.60;2.65;;;-7.00;99.90;;;;;;5093561;28;20384;-62
2021/11/28 09:39:06;;;;;;;4.82;2.60;;;-7.30;99.90;;;;;;5093427;28;20391;-62
2021/11/28 09:41:36;;;;;;;5.30;2.95;;;-7.40;99.90;;;;;;5093084;28;20032;-62
2021/11/28 09:44:07;;;;;;;4.82;2.45;;;-7.50;99.90;;;;;;5093319;28;20051;-62
2021/11/28 09:46:33;;;;;;;;;;;-7.60;99.90;;;;;;5093472;28;20036;-62
2021/11/28 09:49:03;;;;;;;46.65;16.55;;;-6.00;99.90;;;;;;5102586;28;19908;-62
2021/11/28 09:51:29;;;;;;;29.45;14.32;;;-6.10;99.90;;;;;;5107186;28;20024;-62
2021/11/28 09:54:01;;;;;;;8.75;4.75;;;-6.60;99.90;;;;;;5093625;28;20073;-62
2021/11/28 09:56:28;;;;;;;3.60;2.80;;;-7.00;99.90;;;;;;5092823;28;20020;-62
2021/11/28 09:58:55;;;;;;;4.45;2.22;;;-7.30;99.90;;;;;;5092926;28;20106;-62
2021/11/28 10:01:21;;;;;;;3.05;2.30;;;-7.50;99.90;;;;;;5092786;28;20024;-63
2021/11/28 10:03:47;;;;;;;2.15;1.80;;;-7.60;99.90;;;;;;5092839;28;20492;-62
2021/11/28 10:06:13;;;;;;;2.58;2.00;;;-7.60;99.90;;;;;;5093022;28;20020;-62
2021/11/28 10:08:40;;;;;;;6.30;3.03;;;-7.70;99.90;;;;;;5092711;28;20024;-63
2021/11/28 10:11:18;;;;;;;13.65;6.20;;;-7.80;99.90;;;;;;5092728;28;20380;-62
2021/11/28 10:13:48;;;;;;;5.15;3.03;;;-7.80;99.90;;;;;;5092730;28;20495;-62
2021/11/28 10:16:14;;;;;;;;;;;-7.90;99.90;;;;;;5093131;28;20020;-62
2021/11/28 10:18:40;;;;;;;2.45;2.25;;;-7.90;99.90;;;;;;5092605;28;19905;-63
2021/11/28 10:21:06;;;;;;;2.13;1.92;;;-7.90;99.90;;;;;;5100619;28;20024;-62
2021/11/28 10:23:32;;;;;;;2.25;2.05;;;-7.80;99.90;;;;;;5112876;28;20513;-62
2021/11/28 10:26:16;;;;;;;2.25;2.03;;;-7.80;99.90;;;;;;5112270;28;20023;-63
2021/11/28 10:29:08;;;;;;;2.15;1.90;;;-7.80;99.90;;;;;;5112857;28;20477;-63
2021/11/28 10:31:52;;;;;;;3.00;1.92;;;-7.80;99.90;;;;;;5111317;28;20057;-63
2021/11/28 10:34:32;;;;;;;2.28;1.80;;;-7.90;99.90;;;;;;5112806;28;20383;-63
2021/11/28 10:37:15;;;;;;;2.22;1.70;;;-7.90;99.90;;;;;;5113055;28;20024;-63
2021/11/28 10:39:58;;;;;;;1.60;1.48;;;-7.90;99.90;;;;;;5112581;28;20035;-63
2021/11/28 10:42:31;;;;;;;2.08;1.85;;;-8.00;99.90;;;;;;5112909;28;20032;-62
2021/11/28 10:45:21;;;;;;;3.38;1.75;;;-8.00;99.90;;;;;;5112801;28;20024;-62
2021/11/28 10:47:57;;;;;;;4.00;1.85;;;-8.00;99.90;;;;;;5107064;28;20035;-62
2021/11/28 10:50:30;;;;;;;3.20;2.38;;;-8.00;99.90;;;;;;5092168;28;20032;-62
2021/11/28 10:53:04;;;;;;;2.75;1.92;;;-8.00;99.90;;;;;;5092397;28;20085;-62
2021/11/28 10:55:39;;;;;;;3.25;1.92;;;-8.00;99.90;;;;;;5091910;28;20024;-62
2021/11/28 10:58:14;;;;;;;2.38;1.80;;;-8.00;99.90;;;;;;5091889;28;20052;-62
2021/11/28 11:01:07;;;;;;;5.97;1.80;;;-8.00;99.90;;;;;;5091814;28;20028;-62
2021/11/28 11:03:36;;;;;;;2.50;1.80;;;-8.00;99.90;;;;;;5091876;28;20111;-62
2021/11/28 11:06:21;;;;;;;2.10;1.73;;;-8.10;99.90;;;;;;5091965;28;20099;-62
2021/11/28 11:08:52;;;;;;;4.10;2.05;;;-8.10;99.90;;;;;;5092136;28;20055;-62
2021/11/28 11:11:18;;;;;;;2.95;1.92;;;-8.10;99.90;;;;;;5092266;28;20024;-62
2021/11/28 11:13:56;;;;;;;3.90;1.95;;;-8.20;99.90;;;;;;5092128;28;20112;-62
2021/11/28 11:16:35;;;;;;;2.17;1.70;;;-8.20;99.90;;;;;;5092120;28;20059;-62
2021/11/28 11:19:36;;;;;;;3.67;1.88;;;-8.10;99.90;;;;;;5092128;28;20103;-62
2021/11/28 11:22:22;;;;;;;3.03;1.92;;;-7.80;99.90;;;;;;5091319;28;20044;-62
2021/11/28 11:24:58;;;;;;;4.40;1.88;;;-7.80;99.90;;;;;;5091842;28;20480;-62
2021/11/28 11:27:31;;;;;;;2.95;1.73;;;-7.90;99.90;;;;;;5092049;28;20028;-63
2021/11/28 11:30:00;;;;;;;2.90;1.65;;;-8.00;99.90;;;;;;5094098;28;20035;-62
2021/11/28 11:32:39;;;;;;;6.13;2.47;;;-8.00;99.90;;;;;;5091819;28;20192;-62
2021/11/28 11:35:09;;;;;;;7.95;2.85;;;-8.00;99.90;;;;;;5091917;28;20024;-63
2021/11/28 11:37:36;;;;;;;5.70;2.53;;;-8.00;99.90;;;;;;5093755;28;20055;-62
2021/11/28 11:40:09;;;;;;;5.93;2.78;;;-8.10;99.90;;;;;;5095724;28;20024;-63
2021/11/28 11:42:39;;;;;;;5.20;2.10;;;-8.10;99.90;;;;;;5095831;28;20043;-62
2021/11/28 11:45:08;;;;;;;3.50;1.83;;;-8.10;99.90;;;;;;5095937;28;20016;-63
2021/11/28 11:47:35;;;;;;;3.20;1.65;;;-8.20;99.90;;;;;;5095631;28;20042;-62
2021/11/28 11:50:01;;;;;;;4.50;2.00;;;-8.20;99.90;;;;;;5095485;28;20074;-62
2021/11/28 11:52:27;;;;;;;1.88;1.73;;;-8.20;99.90;;;;;;5095433;28;20028;-62
2021/11/28 11:55:01;;;;;;;4.13;1.83;;;-8.20;99.90;;;;;;5095554;28;20081;-62
2021/11/28 11:57:36;;;;;;;3.35;1.80;;;-8.20;99.90;;;;;;5095145;28;20027;-63
2021/11/28 12:00:14;;;;;;;2.85;1.90;;;-8.20;99.90;;;;;;5095560;28;20032;-62
2021/11/28 12:02:45;;;;;;;3.65;2.00;;;-8.10;99.90;;;;;;5095282;28;20036;-62
2021/11/28 12:05:23;;;;;;;2.75;1.70;;;-8.20;99.90;;;;;;5095417;28;20024;-63
2021/11/28 12:07:52;;;;;;;2.17;1.73;;;-8.20;99.90;;;;;;5095015;28;20035;-62
2021/11/28 12:10:43;;;;;;;3.15;2.17;;;-8.20;99.90;;;;;;5094923;28;20024;-62
2021/11/28 12:13:40;;;;;;;3.03;1.70;;;-8.20;99.90;;;;;;5095089;28;20035;-62
2021/11/28 12:16:05;;;;;;;2.55;1.60;;;-8.20;99.90;;;;;;5080248;28;20055;-62
2021/11/28 12:18:34;;;;;;;4.40;1.80;;;-8.20;99.90;;;;;;5094933;28;20109;-62
2021/11/28 12:21:04;;;;;;;2.70;1.73;;;-8.20;99.90;;;;;;5094842;28;20145;-62
2021/11/28 12:23:54;;;;;;;2.40;1.70;;;-8.20;99.90;;;;;;5094827;28;20032;-62
2021/11/28 12:26:26;;;;;;;2.70;1.98;;;-8.20;99.90;;;;;;5094731;28;20099;-62
2021/11/28 12:28:52;;;;;;;2.53;1.70;;;-8.30;99.90;;;;;;5095017;28;20437;-61
2021/11/28 12:31:33;;;;;;;2.90;1.80;;;-8.30;99.90;;;;;;5094607;28;20016;-63
2021/11/28 12:34:02;;;;;;;;;;;-8.30;99.90;;;;;;5095098;28;20028;-66
2021/11/28 12:36:38;;;;;;;3.03;1.67;;;-8.20;99.90;;;;;;5094767;28;19908;-63
2021/11/28 12:39:16;;;;;;;2.08;1.70;;;-7.90;99.90;;;;;;5094889;28;20042;-62
2021/11/28 12:41:44;;;;;;;1.70;1.48;;;-7.90;99.90;;;;;;5094371;28;20033;-62
2021/11/28 12:44:23;;;;;;;2.50;1.73;;;-7.90;99.90;;;;;;5094465;28;20024;-62
2021/11/28 12:47:08;;;;;;;2.38;2.00;;;-8.00;99.90;;;;;;5094283;28;20476;-62
2021/11/28 12:49:57;;;;;;;3.88;2.10;;;-8.00;99.90;;;;;;5093774;28;20418;-62
2021/11/28 12:52:26;;;;;;;9.50;2.65;;;-8.10;99.90;;;;;;5094288;28;20503;-62
2021/11/28 12:55:09;;;;;;;5.15;2.60;;;-8.20;99.90;;;;;;5094509;28;20039;-62
2021/11/28 12:58:03;;;;;;;7.30;3.28;;;-8.20;99.90;;;;;;5094165;28;20040;-62
2021/11/28 13:00:30;;;;;;;16.50;5.20;;;-8.20;99.90;;;;;;5094271;28;20023;-63
2021/11/28 13:03:07;;;;;;;24.08;7.18;;;-8.20;99.90;;;;;;5094105;28;20036;-62
2021/11/28 13:05:45;;;;;;;14.25;4.45;;;-8.20;99.90;;;;;;5094134;28;20514;-62
2021/11/28 13:08:14;;;;;;;9.13;3.50;;;-8.20;99.90;;;;;;5092950;28;20028;-62
2021/11/28 13:10:41;;;;;;;5.10;2.53;;;-8.20;99.90;;;;;;5094069;28;20020;-62
2021/11/28 13:13:28;;;;;;;4.28;2.42;;;-8.20;99.90;;;;;;5097634;28;20050;-63
2021/11/28 13:16:03;;;;;;;7.95;3.33;;;-8.20;99.90;;;;;;5114354;28;20024;-63
2021/11/28 13:18:37;;;;;;;15.45;4.50;;;-8.30;99.90;;;;;;5114189;28;20031;-63
2021/11/28 13:21:21;;;;;;;8.77;3.15;;;-6.10;99.90;;;;;;5114098;28;20026;-63
2021/11/28 13:23:49;;;;;;;6.50;2.30;;;-4.70;99.90;;;;;;5107836;28;20537;-62
2021/11/28 13:26:20;;;;;;;7.65;5.00;;;-3.40;99.90;;;;;;5101091;27;20030;-62
2021/11/28 13:28:48;;;;;;;4.40;3.38;;;-3.30;99.90;;;;;;5104918;28;20020;-62
2021/11/28 13:31:20;;;;;;;3.22;2.83;;;-4.40;99.90;;;;;;5093737;28;20029;-62
2021/11/28 13:33:53;;;;;;;3.55;2.40;;;-5.50;99.90;;;;;;5093770;28;20032;-63
2021/11/28 13:36:20;;;;;;;2.75;1.75;;;-6.30;99.90;;;;;;5098937;28;20024;-62
2021/11/28 13:38:52;;;;;;;2.25;2.05;;;-6.80;99.90;;;;;;5104272;28;20111;-61
2021/11/28 13:41:19;;;;;;;2.97;2.00;;;-7.00;99.90;;;;;;5103092;28;20074;-62
2021/11/28 13:44:10;;;;;;;1.95;1.80;;;-7.20;99.90;;;;;;5102306;28;20019;-62